sensor_id;sensor_type;location;lat;lon;timestamp;temperature;humidity
39665;DHT22;26679;50.872;4.332;2022-08-03T00:01:00;24.60;93.20
39665;DHT22;26679;50.872;4.332;2022-08-03T00:03:25;24.50;93.30
39665;DHT22;26679;50.872;4.332;2022-08-03T00:05:51;24.50;93.50
39665;DHT22;26679;50.872;4.332;2022-08-03T00:08:17;24.40;93.40
39665;DHT22;26679;50.872;4.332;2022-08-03T00:10:42;24.40;93.40
39665;DHT22;26679;50.872;4.332;2022-08-03T00:13:08;24.40;93.60
39665;DHT22;26679;50.872;4.332;2022-08-03T00:15:33;24.40;93.70
39665;DHT22;26679;50.872;4.332;2022-08-03T00:17:59;24.40;93.70
39665;DHT22;26679;50.872;4.332;2022-08-03T00:20:25;24.40;93.70
39665;DHT22;26679;50.872;4.332;2022-08-03T00:22:50;24.40;93.70
39665;DHT22;26679;50.872;4.332;2022-08-03T00:25:16;24.40;93.70
39665;DHT22;26679;50.872;4.332;2022-08-03T00:27:41;24.40;93.80
39665;DHT22;26679;50.872;4.332;2022-08-03T00:30:07;24.30;93.80
39665;DHT22;26679;50.872;4.332;2022-08-03T00:32:33;24.30;93.90
39665;DHT22;26679;50.872;4.332;2022-08-03T00:34:58;24.30;94.00
39665;DHT22;26679;50.872;4.332;2022-08-03T00:37:24;24.20;94.10
39665;DHT22;26679;50.872;4.332;2022-08-03T00:39:49;24.20;94.30
39665;DHT22;26679;50.872;4.332;2022-08-03T00:42:15;24.10;94.50
39665;DHT22;26679;50.872;4.332;2022-08-03T00:44:41;24.00;94.70
39665;DHT22;26679;50.872;4.332;2022-08-03T00:47:07;24.00;94.90
39665;DHT22;26679;50.872;4.332;2022-08-03T00:49:35;23.90;95.00
39665;DHT22;26679;50.872;4.332;2022-08-03T00:52:00;23.90;95.10
39665;DHT22;26679;50.872;4.332;2022-08-03T00:54:26;23.80;95.20
39665;DHT22;26679;50.872;4.332;2022-08-03T00:56:52;23.80;95.40
39665;DHT22;26679;50.872;4.332;2022-08-03T00:59:18;23.80;95.50
39665;DHT22;26679;50.872;4.332;2022-08-03T01:01:43;23.70;95.50
39665;DHT22;26679;50.872;4.332;2022-08-03T01:04:09;23.80;95.50
39665;DHT22;26679;50.872;4.332;2022-08-03T01:09:19;23.70;95.70
39665;DHT22;26679;50.872;4.332;2022-08-03T01:11:48;23.70;95.80
39665;DHT22;26679;50.872;4.332;2022-08-03T01:14:17;23.60;96.00
39665;DHT22;26679;50.872;4.332;2022-08-03T01:24:36;23.40;96.50
39665;DHT22;26679;50.872;4.332;2022-08-03T01:27:11;23.50;96.50
39665;DHT22;26679;50.872;4.332;2022-08-03T01:37:35;23.30;97.10
39665;DHT22;26679;50.872;4.332;2022-08-03T01:40:02;23.30;97.30
39665;DHT22;26679;50.872;4.332;2022-08-03T01:42:29;23.20;97.30
39665;DHT22;26679;50.872;4.332;2022-08-03T01:44:56;23.20;97.40
39665;DHT22;26679;50.872;4.332;2022-08-03T01:47:23;23.20;97.40
39665;DHT22;26679;50.872;4.332;2022-08-03T01:49:50;23.20;97.60
39665;DHT22;26679;50.872;4.332;2022-08-03T01:52:17;23.20;97.70
39665;DHT22;26679;50.872;4.332;2022-08-03T01:54:44;23.20;97.80
39665;DHT22;26679;50.872;4.332;2022-08-03T01:57:10;23.20;97.80
39665;DHT22;26679;50.872;4.332;2022-08-03T01:59:37;23.20;97.90
39665;DHT22;26679;50.872;4.332;2022-08-03T02:02:03;23.10;97.90
39665;DHT22;26679;50.872;4.332;2022-08-03T02:04:29;23.10;98.10
39665;DHT22;26679;50.872;4.332;2022-08-03T02:06:55;23.10;98.10
39665;DHT22;26679;50.872;4.332;2022-08-03T02:09:21;23.00;98.30
39665;DHT22;26679;50.872;4.332;2022-08-03T02:11:48;23.00;98.40
39665;DHT22;26679;50.872;4.332;2022-08-03T02:14:13;23.00;98.60
39665;DHT22;26679;50.872;4.332;2022-08-03T02:16:40;23.00;98.50
39665;DHT22;26679;50.872;4.332;2022-08-03T02:19:06;23.00;98.50
39665;DHT22;26679;50.872;4.332;2022-08-03T02:21:35;23.00;98.70
39665;DHT22;26679;50.872;4.332;2022-08-03T02:24:01;23.00;98.70
39665;DHT22;26679;50.872;4.332;2022-08-03T02:26:27;23.00;98.70
39665;DHT22;26679;50.872;4.332;2022-08-03T02:28:53;22.90;98.80
39665;DHT22;26679;50.872;4.332;2022-08-03T02:31:21;22.90;98.90
39665;DHT22;26679;50.872;4.332;2022-08-03T02:33:49;22.90;99.00
39665;DHT22;26679;50.872;4.332;2022-08-03T02:36:15;22.90;99.10
39665;DHT22;26679;50.872;4.332;2022-08-03T02:38:44;22.90;99.10
39665;DHT22;26679;50.872;4.332;2022-08-03T02:41:14;22.90;99.10
39665;DHT22;26679;50.872;4.332;2022-08-03T02:43:40;23.00;99.10
39665;DHT22;26679;50.872;4.332;2022-08-03T02:46:07;23.00;99.00
39665;DHT22;26679;50.872;4.332;2022-08-03T02:48:33;22.90;99.00
39665;DHT22;26679;50.872;4.332;2022-08-03T02:51:01;22.90;99.10
39665;DHT22;26679;50.872;4.332;2022-08-03T02:53:27;22.80;99.20
39665;DHT22;26679;50.872;4.332;2022-08-03T02:55:53;22.80;99.30
39665;DHT22;26679;50.872;4.332;2022-08-03T02:58:19;22.80;99.30
39665;DHT22;26679;50.872;4.332;2022-08-03T03:00:48;22.80;99.20
39665;DHT22;26679;50.872;4.332;2022-08-03T03:03:16;22.80;99.30
39665;DHT22;26679;50.872;4.332;2022-08-03T03:05:41;22.70;99.40
39665;DHT22;26679;50.872;4.332;2022-08-03T03:08:07;22.70;99.60
39665;DHT22;26679;50.872;4.332;2022-08-03T03:10:33;22.70;99.70
39665;DHT22;26679;50.872;4.332;2022-08-03T03:12:59;22.70;99.70
39665;DHT22;26679;50.872;4.332;2022-08-03T03:15:26;22.70;99.80
39665;DHT22;26679;50.872;4.332;2022-08-03T03:17:52;22.60;99.90
39665;DHT22;26679;50.872;4.332;2022-08-03T03:20:18;22.50;99.90
39665;DHT22;26679;50.872;4.332;2022-08-03T03:22:44;22.50;99.90
39665;DHT22;26679;50.872;4.332;2022-08-03T03:25:11;22.40;99.90
39665;DHT22;26679;50.872;4.332;2022-08-03T03:27:36;22.40;99.90
39665;DHT22;26679;50.872;4.332;2022-08-03T03:30:03;22.30;99.90
39665;DHT22;26679;50.872;4.332;2022-08-03T03:32:29;22.40;99.90
39665;DHT22;26679;50.872;4.332;2022-08-03T03:34:54;22.40;99.90
39665;DHT22;26679;50.872;4.332;2022-08-03T03:37:21;22.40;99.90
39665;DHT22;26679;50.872;4.332;2022-08-03T03:39:46;22.40;99.90
39665;DHT22;26679;50.872;4.332;2022-08-03T03:42:12;22.40;99.90
39665;DHT22;26679;50.872;4.332;2022-08-03T03:44:37;22.40;99.90
39665;DHT22;26679;50.872;4.332;2022-08-03T03:47:03;22.40;99.90
39665;DHT22;26679;50.872;4.332;2022-08-03T03:49:29;22.40;99.90
39665;DHT22;26679;50.872;4.332;2022-08-03T03:51:55;22.40;99.90
39665;DHT22;26679;50.872;4.332;2022-08-03T03:54:20;22.40;99.90
39665;DHT22;26679;50.872;4.332;2022-08-03T03:56:46;22.40;99.90
39665;DHT22;26679;50.872;4.332;2022-08-03T03:59:11;22.40;99.90
39665;DHT22;26679;50.872;4.332;2022-08-03T04:01:37;22.30;99.90
39665;DHT22;26679;50.872;4.332;2022-08-03T04:04:03;22.30;99.90
39665;DHT22;26679;50.872;4.332;2022-08-03T04:06:48;22.20;99.90
39665;DHT22;26679;50.872;4.332;2022-08-03T04:09:25;22.20;99.90
39665;DHT22;26679;50.872;4.332;2022-08-03T04:12:01;22.20;99.90
39665;DHT22;26679;50.872;4.332;2022-08-03T04:14:27;22.20;99.90
39665;DHT22;26679;50.872;4.332;2022-08-03T04:16:57;22.10;99.90
39665;DHT22;26679;50.872;4.332;2022-08-03T04:22:01;22.00;99.90
39665;DHT22;26679;50.872;4.332;2022-08-03T04:24:31;22.00;99.90
39665;DHT22;26679;50.872;4.332;2022-08-03T04:26:58;22.00;99.90
39665;DHT22;26679;50.872;4.332;2022-08-03T04:29:24;22.00;99.90
39665;DHT22;26679;50.872;4.332;2022-08-03T04:31:50;21.90;99.90
39665;DHT22;26679;50.872;4.332;2022-08-03T04:34:17;21.90;99.90
39665;DHT22;26679;50.872;4.332;2022-08-03T04:36:46;21.90;99.90
39665;DHT22;26679;50.872;4.332;2022-08-03T04:39:15;21.80;99.90
39665;DHT22;26679;50.872;4.332;2022-08-03T04:41:42;21.80;99.90
39665;DHT22;26679;50.872;4.332;2022-08-03T04:44:09;21.80;99.90
39665;DHT22;26679;50.872;4.332;2022-08-03T04:46:36;21.80;99.90
39665;DHT22;26679;50.872;4.332;2022-08-03T04:49:02;21.80;99.90
39665;DHT22;26679;50.872;4.332;2022-08-03T04:51:28;21.80;99.90
39665;DHT22;26679;50.872;4.332;2022-08-03T04:53:54;21.80;99.90
39665;DHT22;26679;50.872;4.332;2022-08-03T04:56:19;21.80;99.90
39665;DHT22;26679;50.872;4.332;2022-08-03T04:58:45;21.80;99.90
39665;DHT22;26679;50.872;4.332;2022-08-03T05:01:10;21.80;99.90
39665;DHT22;26679;50.872;4.332;2022-08-03T05:03:36;21.80;99.90
39665;DHT22;26679;50.872;4.332;2022-08-03T05:06:01;21.80;99.90
39665;DHT22;26679;50.872;4.332;2022-08-03T05:08:27;21.80;99.90
39665;DHT22;26679;50.872;4.332;2022-08-03T05:10:53;21.80;99.90
39665;DHT22;26679;50.872;4.332;2022-08-03T05:13:18;21.90;99.90
39665;DHT22;26679;50.872;4.332;2022-08-03T05:15:44;21.90;99.90
39665;DHT22;26679;50.872;4.332;2022-08-03T05:18:09;21.90;99.90
39665;DHT22;26679;50.872;4.332;2022-08-03T05:20:35;21.90;99.90
39665;DHT22;26679;50.872;4.332;2022-08-03T05:23:00;21.90;99.90
39665;DHT22;26679;50.872;4.332;2022-08-03T05:25:28;22.00;99.90
39665;DHT22;26679;50.872;4.332;2022-08-03T05:27:53;21.90;99.90
39665;DHT22;26679;50.872;4.332;2022-08-03T05:30:19;21.80;99.90
39665;DHT22;26679;50.872;4.332;2022-08-03T05:32:44;21.80;99.90
39665;DHT22;26679;50.872;4.332;2022-08-03T05:35:10;21.80;99.90
39665;DHT22;26679;50.872;4.332;2022-08-03T05:37:35;21.80;99.90
39665;DHT22;26679;50.872;4.332;2022-08-03T05:40:01;21.80;99.90
39665;DHT22;26679;50.872;4.332;2022-08-03T05:42:26;21.80;99.90
39665;DHT22;26679;50.872;4.332;2022-08-03T05:44:52;21.90;99.90
39665;DHT22;26679;50.872;4.332;2022-08-03T05:47:17;21.80;99.90
39665;DHT22;26679;50.872;4.332;2022-08-03T05:49:43;21.80;99.90
39665;DHT22;26679;50.872;4.332;2022-08-03T05:52:08;21.90;99.90
39665;DHT22;26679;50.872;4.332;2022-08-03T05:54:34;21.90;99.90
39665;DHT22;26679;50.872;4.332;2022-08-03T05:56:59;21.90;99.90
39665;DHT22;26679;50.872;4.332;2022-08-03T05:59:25;21.80;99.90
39665;DHT22;26679;50.872;4.332;2022-08-03T06:01:50;21.80;99.90
39665;DHT22;26679;50.872;4.332;2022-08-03T06:04:16;21.90;99.90
39665;DHT22;26679;50.872;4.332;2022-08-03T06:06:41;21.90;99.90
39665;DHT22;26679;50.872;4.332;2022-08-03T06:09:08;21.90;99.90
39665;DHT22;26679;50.872;4.332;2022-08-03T06:11:35;21.90;99.90
39665;DHT22;26679;50.872;4.332;2022-08-03T06:14:00;21.80;99.90
39665;DHT22;26679;50.872;4.332;2022-08-03T06:16:26;21.90;99.90
39665;DHT22;26679;50.872;4.332;2022-08-03T06:18:51;21.90;99.90
39665;DHT22;26679;50.872;4.332;2022-08-03T06:21:17;21.90;99.90
39665;DHT22;26679;50.872;4.332;2022-08-03T06:23:43;21.90;99.90
39665;DHT22;26679;50.872;4.332;2022-08-03T06:26:09;21.90;99.90
39665;DHT22;26679;50.872;4.332;2022-08-03T06:28:34;22.10;99.90
39665;DHT22;26679;50.872;4.332;2022-08-03T06:31:00;22.20;99.90
39665;DHT22;26679;50.872;4.332;2022-08-03T06:33:26;22.30;99.90
39665;DHT22;26679;50.872;4.332;2022-08-03T06:35:51;22.40;99.90
39665;DHT22;26679;50.872;4.332;2022-08-03T06:38:17;22.40;99.90
39665;DHT22;26679;50.872;4.332;2022-08-03T06:40:42;22.50;99.90
39665;DHT22;26679;50.872;4.332;2022-08-03T06:43:07;22.70;99.90
39665;DHT22;26679;50.872;4.332;2022-08-03T06:45:33;22.80;99.90
39665;DHT22;26679;50.872;4.332;2022-08-03T06:48:00;22.90;99.90
39665;DHT22;26679;50.872;4.332;2022-08-03T06:50:26;23.00;99.90
39665;DHT22;26679;50.872;4.332;2022-08-03T06:52:52;23.10;99.90
39665;DHT22;26679;50.872;4.332;2022-08-03T06:55:17;23.10;99.90
39665;DHT22;26679;50.872;4.332;2022-08-03T06:57:43;23.10;99.90
39665;DHT22;26679;50.872;4.332;2022-08-03T07:00:08;23.10;99.90
39665;DHT22;26679;50.872;4.332;2022-08-03T07:02:34;23.20;99.90
39665;DHT22;26679;50.872;4.332;2022-08-03T07:04:59;23.20;99.90
39665;DHT22;26679;50.872;4.332;2022-08-03T07:07:25;23.30;99.90
39665;DHT22;26679;50.872;4.332;2022-08-03T07:09:50;23.40;99.90
39665;DHT22;26679;50.872;4.332;2022-08-03T07:12:16;23.40;99.90
39665;DHT22;26679;50.872;4.332;2022-08-03T07:14:41;23.50;99.90
39665;DHT22;26679;50.872;4.332;2022-08-03T07:17:07;23.60;99.90
39665;DHT22;26679;50.872;4.332;2022-08-03T07:19:32;23.70;99.90
39665;DHT22;26679;50.872;4.332;2022-08-03T07:21:58;23.80;99.90
39665;DHT22;26679;50.872;4.332;2022-08-03T07:24:23;23.80;99.90
39665;DHT22;26679;50.872;4.332;2022-08-03T07:26:49;23.90;99.90
39665;DHT22;26679;50.872;4.332;2022-08-03T07:29:14;23.90;99.90
39665;DHT22;26679;50.872;4.332;2022-08-03T07:31:40;24.10;99.90
39665;DHT22;26679;50.872;4.332;2022-08-03T07:34:06;24.10;99.90
39665;DHT22;26679;50.872;4.332;2022-08-03T07:36:31;24.20;99.90
39665;DHT22;26679;50.872;4.332;2022-08-03T07:38:57;24.30;99.90
39665;DHT22;26679;50.872;4.332;2022-08-03T07:41:23;24.40;99.90
39665;DHT22;26679;50.872;4.332;2022-08-03T07:43:48;24.40;99.90
39665;DHT22;26679;50.872;4.332;2022-08-03T07:46:14;24.60;99.90
39665;DHT22;26679;50.872;4.332;2022-08-03T07:48:39;24.70;99.80
39665;DHT22;26679;50.872;4.332;2022-08-03T07:51:05;24.90;99.40
39665;DHT22;26679;50.872;4.332;2022-08-03T07:53:30;24.90;99.10
39665;DHT22;26679;50.872;4.332;2022-08-03T07:55:56;24.80;99.20
39665;DHT22;26679;50.872;4.332;2022-08-03T07:58:21;24.80;99.20
39665;DHT22;26679;50.872;4.332;2022-08-03T08:00:47;24.80;99.10
39665;DHT22;26679;50.872;4.332;2022-08-03T08:03:15;24.90;98.90
39665;DHT22;26679;50.872;4.332;2022-08-03T08:05:40;24.90;98.90
39665;DHT22;26679;50.872;4.332;2022-08-03T08:08:06;25.00;98.90
39665;DHT22;26679;50.872;4.332;2022-08-03T08:10:32;25.10;98.80
39665;DHT22;26679;50.872;4.332;2022-08-03T08:12:58;25.10;98.70
39665;DHT22;26679;50.872;4.332;2022-08-03T08:15:24;25.20;98.60
39665;DHT22;26679;50.872;4.332;2022-08-03T08:17:51;25.30;98.30
39665;DHT22;26679;50.872;4.332;2022-08-03T08:20:17;25.30;98.10
39665;DHT22;26679;50.872;4.332;2022-08-03T08:22:43;25.30;98.00
39665;DHT22;26679;50.872;4.332;2022-08-03T08:25:09;25.30;98.10
39665;DHT22;26679;50.872;4.332;2022-08-03T08:27:44;25.40;98.20
39665;DHT22;26679;50.872;4.332;2022-08-03T08:30:10;25.40;98.10
39665;DHT22;26679;50.872;4.332;2022-08-03T08:32:36;25.60;97.60
39665;DHT22;26679;50.872;4.332;2022-08-03T08:35:02;25.80;97.00
39665;DHT22;26679;50.872;4.332;2022-08-03T08:37:28;25.80;96.70
39665;DHT22;26679;50.872;4.332;2022-08-03T08:39:54;25.80;96.70
39665;DHT22;26679;50.872;4.332;2022-08-03T08:42:20;25.90;96.40
39665;DHT22;26679;50.872;4.332;2022-08-03T08:44:45;25.90;96.50
39665;DHT22;26679;50.872;4.332;2022-08-03T08:47:11;26.00;96.50
39665;DHT22;26679;50.872;4.332;2022-08-03T08:49:36;26.00;96.40
39665;DHT22;26679;50.872;4.332;2022-08-03T08:52:04;25.90;96.50
39665;DHT22;26679;50.872;4.332;2022-08-03T08:54:29;26.00;96.40
39665;DHT22;26679;50.872;4.332;2022-08-03T08:56:56;26.00;96.30
39665;DHT22;26679;50.872;4.332;2022-08-03T08:59:23;26.20;96.00
39665;DHT22;26679;50.872;4.332;2022-08-03T09:01:49;26.30;95.70
39665;DHT22;26679;50.872;4.332;2022-08-03T09:04:14;26.30;95.60
39665;DHT22;26679;50.872;4.332;2022-08-03T09:06:40;26.40;95.60
39665;DHT22;26679;50.872;4.332;2022-08-03T09:09:05;26.50;95.50
39665;DHT22;26679;50.872;4.332;2022-08-03T09:11:32;26.60;95.40
39665;DHT22;26679;50.872;4.332;2022-08-03T09:13:58;26.70;94.90
39665;DHT22;26679;50.872;4.332;2022-08-03T09:16:23;26.70;94.90
39665;DHT22;26679;50.872;4.332;2022-08-03T09:18:52;26.70;95.00
39665;DHT22;26679;50.872;4.332;2022-08-03T09:23:44;26.90;94.90
39665;DHT22;26679;50.872;4.332;2022-08-03T09:26:10;27.50;94.40
39665;DHT22;26679;50.872;4.332;2022-08-03T09:28:35;28.60;93.10
39665;DHT22;26679;50.872;4.332;2022-08-03T09:31:01;29.70;91.70
39665;DHT22;26679;50.872;4.332;2022-08-03T09:33:28;30.60;90.40
39665;DHT22;26679;50.872;4.332;2022-08-03T09:35:54;31.00;89.40
39665;DHT22;26679;50.872;4.332;2022-08-03T09:38:21;31.60;87.60
39665;DHT22;26679;50.872;4.332;2022-08-03T09:40:51;31.60;87.40
39665;DHT22;26679;50.872;4.332;2022-08-03T09:43:17;31.70;87.10
39665;DHT22;26679;50.872;4.332;2022-08-03T09:45:43;32.30;85.70
39665;DHT22;26679;50.872;4.332;2022-08-03T09:50:46;33.20;83.80
39665;DHT22;26679;50.872;4.332;2022-08-03T09:53:12;33.30;83.10
39665;DHT22;26679;50.872;4.332;2022-08-03T09:55:38;33.00;83.00
39665;DHT22;26679;50.872;4.332;2022-08-03T09:58:14;33.30;82.60
39665;DHT22;26679;50.872;4.332;2022-08-03T10:00:59;33.50;82.70
39665;DHT22;26679;50.872;4.332;2022-08-03T10:03:26;33.60;82.30
39665;DHT22;26679;50.872;4.332;2022-08-03T10:05:51;34.10;81.50
39665;DHT22;26679;50.872;4.332;2022-08-03T10:08:18;34.30;80.60
39665;DHT22;26679;50.872;4.332;2022-08-03T10:10:44;34.20;81.00
39665;DHT22;26679;50.872;4.332;2022-08-03T10:13:10;34.60;79.80
39665;DHT22;26679;50.872;4.332;2022-08-03T10:15:37;34.60;79.70
39665;DHT22;26679;50.872;4.332;2022-08-03T10:18:03;34.40;79.90
39665;DHT22;26679;50.872;4.332;2022-08-03T10:20:29;34.80;79.40
39665;DHT22;26679;50.872;4.332;2022-08-03T10:22:55;35.00;79.20
39665;DHT22;26679;50.872;4.332;2022-08-03T10:25:22;35.40;79.20
39665;DHT22;26679;50.872;4.332;2022-08-03T10:27:48;35.40;77.90
39665;DHT22;26679;50.872;4.332;2022-08-03T10:30:15;35.30;77.60
39665;DHT22;26679;50.872;4.332;2022-08-03T10:35:07;35.80;77.50
39665;DHT22;26679;50.872;4.332;2022-08-03T10:37:41;36.30;76.70
39665;DHT22;26679;50.872;4.332;2022-08-03T10:40:09;36.30;76.30
39665;DHT22;26679;50.872;4.332;2022-08-03T10:42:36;35.60;76.70
39665;DHT22;26679;50.872;4.332;2022-08-03T10:45:04;35.60;76.90
39665;DHT22;26679;50.872;4.332;2022-08-03T10:47:30;35.60;76.60
39665;DHT22;26679;50.872;4.332;2022-08-03T10:49:56;35.90;76.30
39665;DHT22;26679;50.872;4.332;2022-08-03T10:52:22;35.90;76.20
39665;DHT22;26679;50.872;4.332;2022-08-03T10:54:47;36.00;76.10
39665;DHT22;26679;50.872;4.332;2022-08-03T11:00:00;36.50;75.50
39665;DHT22;26679;50.872;4.332;2022-08-03T11:07:42;36.90;74.10
39665;DHT22;26679;50.872;4.332;2022-08-03T11:10:07;36.70;74.60
39665;DHT22;26679;50.872;4.332;2022-08-03T11:12:52;36.80;74.60
39665;DHT22;26679;50.872;4.332;2022-08-03T11:15:33;36.60;74.40
39665;DHT22;26679;50.872;4.332;2022-08-03T11:18:06;36.90;74.70
39665;DHT22;26679;50.872;4.332;2022-08-03T11:23:10;37.80;73.00
39665;DHT22;26679;50.872;4.332;2022-08-03T11:30:49;38.80;70.90
39665;DHT22;26679;50.872;4.332;2022-08-03T11:33:27;38.50;70.90
39665;DHT22;26679;50.872;4.332;2022-08-03T11:35:57;38.50;71.10
39665;DHT22;26679;50.872;4.332;2022-08-03T11:38:23;39.00;70.20
39665;DHT22;26679;50.872;4.332;2022-08-03T11:40:51;39.50;70.40
39665;DHT22;26679;50.872;4.332;2022-08-03T11:48:22;39.40;68.70
39665;DHT22;26679;50.872;4.332;2022-08-03T11:50:51;39.90;68.60
39665;DHT22;26679;50.872;4.332;2022-08-03T11:53:17;39.80;68.80
39665;DHT22;26679;50.872;4.332;2022-08-03T11:55:43;39.70;68.20
39665;DHT22;26679;50.872;4.332;2022-08-03T11:58:20;40.00;67.70
39665;DHT22;26679;50.872;4.332;2022-08-03T12:00:46;39.80;67.90
39665;DHT22;26679;50.872;4.332;2022-08-03T12:03:13;40.10;67.60
39665;DHT22;26679;50.872;4.332;2022-08-03T12:08:13;40.50;67.70
39665;DHT22;26679;50.872;4.332;2022-08-03T12:10:39;40.70;66.60
39665;DHT22;26679;50.872;4.332;2022-08-03T12:13:05;40.70;66.40
39665;DHT22;26679;50.872;4.332;2022-08-03T12:15:32;40.00;66.70
39665;DHT22;26679;50.872;4.332;2022-08-03T12:17:58;39.80;67.10
39665;DHT22;26679;50.872;4.332;2022-08-03T12:20:25;40.30;66.40
39665;DHT22;26679;50.872;4.332;2022-08-03T12:22:51;40.30;66.60
39665;DHT22;26679;50.872;4.332;2022-08-03T12:25:20;40.70;65.70
39665;DHT22;26679;50.872;4.332;2022-08-03T12:27:46;41.00;65.30
39665;DHT22;26679;50.872;4.332;2022-08-03T12:30:12;41.00;65.20
39665;DHT22;26679;50.872;4.332;2022-08-03T12:32:37;40.90;65.20
39665;DHT22;26679;50.872;4.332;2022-08-03T12:35:03;41.20;64.90
39665;DHT22;26679;50.872;4.332;2022-08-03T12:37:30;42.00;64.40
39665;DHT22;26679;50.872;4.332;2022-08-03T12:39:56;42.10;64.50
39665;DHT22;26679;50.872;4.332;2022-08-03T12:42:30;42.40;63.50
39665;DHT22;26679;50.872;4.332;2022-08-03T12:44:55;42.40;63.40
39665;DHT22;26679;50.872;4.332;2022-08-03T12:47:21;42.20;63.80
39665;DHT22;26679;50.872;4.332;2022-08-03T12:49:47;42.50;63.20
39665;DHT22;26679;50.872;4.332;2022-08-03T12:52:13;41.70;63.70
39665;DHT22;26679;50.872;4.332;2022-08-03T12:54:39;41.70;63.80
39665;DHT22;26679;50.872;4.332;2022-08-03T12:57:05;42.30;63.50
39665;DHT22;26679;50.872;4.332;2022-08-03T12:59:35;42.80;63.40
39665;DHT22;26679;50.872;4.332;2022-08-03T13:02:04;43.30;62.10
39665;DHT22;26679;50.872;4.332;2022-08-03T13:04:30;44.40;61.70
39665;DHT22;26679;50.872;4.332;2022-08-03T13:07:03;44.70;61.20
39665;DHT22;26679;50.872;4.332;2022-08-03T13:09:30;44.10;61.10
39665;DHT22;26679;50.872;4.332;2022-08-03T13:12:08;43.20;61.60
39665;DHT22;26679;50.872;4.332;2022-08-03T13:14:34;42.70;61.50
39665;DHT22;26679;50.872;4.332;2022-08-03T13:17:00;41.70;62.80
39665;DHT22;26679;50.872;4.332;2022-08-03T13:19:26;41.00;62.70
39665;DHT22;26679;50.872;4.332;2022-08-03T13:21:51;39.90;62.90
39665;DHT22;26679;50.872;4.332;2022-08-03T13:24:17;39.00;64.10
39665;DHT22;26679;50.872;4.332;2022-08-03T13:26:43;38.20;64.60
39665;DHT22;26679;50.872;4.332;2022-08-03T13:29:09;38.40;64.80
39665;DHT22;26679;50.872;4.332;2022-08-03T13:31:34;38.70;64.70
39665;DHT22;26679;50.872;4.332;2022-08-03T13:34:00;39.50;64.20
39665;DHT22;26679;50.872;4.332;2022-08-03T13:36:25;39.80;64.30
39665;DHT22;26679;50.872;4.332;2022-08-03T13:38:51;41.10;63.90
39665;DHT22;26679;50.872;4.332;2022-08-03T13:41:17;41.60;62.50
39665;DHT22;26679;50.872;4.332;2022-08-03T13:43:42;41.40;62.70
39665;DHT22;26679;50.872;4.332;2022-08-03T13:46:08;42.30;62.20
39665;DHT22;26679;50.872;4.332;2022-08-03T13:48:33;43.40;61.70
39665;DHT22;26679;50.872;4.332;2022-08-03T13:50:58;43.80;60.60
39665;DHT22;26679;50.872;4.332;2022-08-03T13:53:24;43.60;60.70
39665;DHT22;26679;50.872;4.332;2022-08-03T13:55:49;43.20;60.60
39665;DHT22;26679;50.872;4.332;2022-08-03T13:58:15;42.30;61.00
39665;DHT22;26679;50.872;4.332;2022-08-03T14:00:40;41.90;61.20
39665;DHT22;26679;50.872;4.332;2022-08-03T14:03:06;42.30;62.20
39665;DHT22;26679;50.872;4.332;2022-08-03T14:05:31;42.60;60.80
39665;DHT22;26679;50.872;4.332;2022-08-03T14:07:57;42.30;61.00
39665;DHT22;26679;50.872;4.332;2022-08-03T14:10:23;41.40;61.20
39665;DHT22;26679;50.872;4.332;2022-08-03T14:12:48;41.30;61.80
39665;DHT22;26679;50.872;4.332;2022-08-03T14:15:14;42.20;61.30
39665;DHT22;26679;50.872;4.332;2022-08-03T14:17:39;42.60;61.00
39665;DHT22;26679;50.872;4.332;2022-08-03T14:20:06;43.20;60.90
39665;DHT22;26679;50.872;4.332;2022-08-03T14:22:31;44.00;60.50
39665;DHT22;26679;50.872;4.332;2022-08-03T14:24:57;44.10;59.60
39665;DHT22;26679;50.872;4.332;2022-08-03T14:27:23;43.70;59.60
39665;DHT22;26679;50.872;4.332;2022-08-03T14:29:48;43.50;59.40
39665;DHT22;26679;50.872;4.332;2022-08-03T14:32:14;43.40;59.70
39665;DHT22;26679;50.872;4.332;2022-08-03T14:34:39;41.80;60.40
39665;DHT22;26679;50.872;4.332;2022-08-03T14:37:05;41.20;60.90
39665;DHT22;26679;50.872;4.332;2022-08-03T14:39:31;41.40;60.90
39665;DHT22;26679;50.872;4.332;2022-08-03T14:41:56;41.70;60.70
39665;DHT22;26679;50.872;4.332;2022-08-03T14:44:22;42.00;60.50
39665;DHT22;26679;50.872;4.332;2022-08-03T14:46:47;42.30;60.80
39665;DHT22;26679;50.872;4.332;2022-08-03T14:49:13;42.80;60.30
39665;DHT22;26679;50.872;4.332;2022-08-03T14:51:39;43.20;59.80
39665;DHT22;26679;50.872;4.332;2022-08-03T14:54:04;43.50;59.50
39665;DHT22;26679;50.872;4.332;2022-08-03T14:56:30;43.60;59.40
39665;DHT22;26679;50.872;4.332;2022-08-03T14:58:55;43.70;59.20
39665;DHT22;26679;50.872;4.332;2022-08-03T15:01:21;43.50;59.40
39665;DHT22;26679;50.872;4.332;2022-08-03T15:03:46;43.90;59.20
39665;DHT22;26679;50.872;4.332;2022-08-03T15:06:12;43.90;58.80
39665;DHT22;26679;50.872;4.332;2022-08-03T15:08:38;44.20;58.60
39665;DHT22;26679;50.872;4.332;2022-08-03T15:11:04;44.60;58.50
39665;DHT22;26679;50.872;4.332;2022-08-03T15:13:29;44.10;58.70
39665;DHT22;26679;50.872;4.332;2022-08-03T15:15:55;43.60;58.90
39665;DHT22;26679;50.872;4.332;2022-08-03T15:18:22;43.30;59.00
39665;DHT22;26679;50.872;4.332;2022-08-03T15:20:47;42.90;59.10
39665;DHT22;26679;50.872;4.332;2022-08-03T15:23:15;42.70;59.40
39665;DHT22;26679;50.872;4.332;2022-08-03T15:25:41;42.80;59.30
39665;DHT22;26679;50.872;4.332;2022-08-03T15:28:07;42.70;59.60
39665;DHT22;26679;50.872;4.332;2022-08-03T15:30:32;42.90;59.60
39665;DHT22;26679;50.872;4.332;2022-08-03T15:33:01;43.00;59.20
39665;DHT22;26679;50.872;4.332;2022-08-03T15:35:27;42.90;59.60
39665;DHT22;26679;50.872;4.332;2022-08-03T15:37:53;43.10;59.20
39665;DHT22;26679;50.872;4.332;2022-08-03T15:40:18;43.50;58.90
39665;DHT22;26679;50.872;4.332;2022-08-03T15:42:44;43.70;58.80
39665;DHT22;26679;50.872;4.332;2022-08-03T15:45:09;44.10;58.50
39665;DHT22;26679;50.872;4.332;2022-08-03T15:47:35;44.10;58.40
39665;DHT22;26679;50.872;4.332;2022-08-03T15:50:00;43.90;58.60
39665;DHT22;26679;50.872;4.332;2022-08-03T15:52:26;43.90;58.60
39665;DHT22;26679;50.872;4.332;2022-08-03T15:54:52;44.30;58.30
39665;DHT22;26679;50.872;4.332;2022-08-03T15:57:18;44.50;58.00
39665;DHT22;26679;50.872;4.332;2022-08-03T15:59:43;44.50;58.10
39665;DHT22;26679;50.872;4.332;2022-08-03T16:02:08;44.80;57.90
39665;DHT22;26679;50.872;4.332;2022-08-03T16:04:34;44.30;57.80
39665;DHT22;26679;50.872;4.332;2022-08-03T16:06:59;43.50;58.20
39665;DHT22;26679;50.872;4.332;2022-08-03T16:09:25;43.10;58.50
39665;DHT22;26679;50.872;4.332;2022-08-03T16:11:50;43.10;58.70
39665;DHT22;26679;50.872;4.332;2022-08-03T16:14:16;43.50;58.70
39665;DHT22;26679;50.872;4.332;2022-08-03T16:16:42;43.50;58.50